Airfield :
LOGIN :

Register | Disclaimer

   EN    FR    IT 

 










Legend :    VFR   Marginal VFR   IFR   Intensive IFR   Very Intensive IFR
Visi :
Ceiling :
>= 8 km
>= 3000ft
5 to 8 km
1000 to 3000 ft
1500m to 5 km
500 to 1000 ft
800 to 1500m
200 to 500 ft
< 800m
< 200 ft
Symbols :   Thunderstorms  Fog  Heavy snow  Heavy precipitations  Wind > 20 kt
SIGMETs :     Misc.  Thunderstorms  Icing  Turbulence  Mountain Waves  Volcanic Ashes






- Airport Elevation : 97 ft
- IATA code : EBJ


EKEB - Esbjerg

CURRENT METAR :
  • 112120Z AUTO 16006KT 120V190 3400 BR OVC002/// 05/04 Q1001

EXPIRED METARs :
  • 112050Z AUTO 14005KT 110V180 3400 BR OVC002/// 05/05 Q1001
  • 112020Z AUTO 16006KT 120V190 5000 BKN002/// 05/05 Q1001
  • 111950Z AUTO 15005KT 120V190 8000 BKN003/// 05/05 Q1001
  • 111920Z AUTO 15005KT 120V200 8000 BKN003/// BKN025/// 05/05 Q1001
  • 111850Z AUTO 17006KT 140V200 9999 BKN006/// 05/05 Q1002
  • 111820Z AUTO 17006KT 9999 FEW008/// FEW026/// BKN035/// 05/05 Q1002

TAF AMD TAF EKEB
Valid from the 11 at 20:00 until the 12 at 00:00 UTC


112034Z 1120/1124 17006KT 9000 BKN020
TEMPO 1120/1122 4000 BR BKN002
TEMPO 1122/1124 4000 BR BKN008



MET'MAP, your aeronautical weather chart ! - Copyright ORBIFLY December 2007 - Disclaimer

ORBIFLY MET'MAP TEAM :

Programming & Development : Alexandra Zaïnal
Concept & original design : Baudouin d'Aumeries
Assistance for programming : Marc-Olivier Méhu
Technical & hardware support : Manuel Goepfert

Contact : metmap@orbifly.com




SOURCES & CREDITS :

   NOAA